Guatay, CA (91931)

11:12 AM PDT on September 30, 2014 (GMT -0700)
MesoWest Guatay CA US SDGE | Change Station
CLOSE
Current Station
Personal Weather Station
Location: Guatay, CA
Elevation: 3892 ft
Nearby Weather Stations

Elev 3892 ft 32.86 °N, 116.57 °W | Updated 42 minutes ago

Clear
Clear
73 °F
Feels Like 75 °F
N
6
Wind Variable Wind from WNW
Gusts 11.0 mph

Today
High -- | Low -- °F
--% Chance of Precip.
Yesterday
High -- | Low -- °F
Precip. -- in
6:39 AM 6:32 PM
Waxing Crescent, 39% visible
Pressure 29.80 in
Visibility -9999.0 miles
Clouds
Heat Index 75 °F
Dew Point 32 °F
Humidity 22%
Rainfall -999.00 in
Snow Depth 1 in , 0 in , 0 in
UV Not available.
Pollen 5.10 out of 12
Air Quality Not available.
Flu Activity Not available.
METAR KCZZ 301752Z AUTO 34005KT 28/02 A2989 RMK AO1 SLP090 T02780017 10278 20078 58007 $

More Conditions Fewer Conditions

Pressure 29.80 in
Visibility -9999.0 miles
Clouds
Heat Index 75 °F
Dew Point 32 °F
Humidity 22%
Rainfall -999.00 in
Snow Depth 1 in , 0 in , 0 in
UV Not available.
Pollen 5.10 out of 12
Air Quality Not available.
Flu Activity Not available.
METAR KCZZ 301752Z AUTO 34005KT 28/02 A2989 RMK AO1 SLP090 T02780017 10278 20078 58007 $

More Conditions Fewer Conditions

10-Day Weather Forecast

Almanac

Astronomy

Sep. 30, 2014 Rise Set
Actual Time 6:39 AM PDT 6:32 PM PDT
Civil Twilight 6:15 AM PDT 6:56 PM PDT
Nautical Twilight 5:46 AM PDT 7:25 PM PDT
Astronomical Twilight 5:17 AM PDT 7:53 PM PDT
Moon 12:37 PM PDT 11:20 PM PDT
Length of Visible Light 12h 41m
Length of Day
11h 52m
Tomorrow will be 2m 0s shorter.
Waxing Crescent, 39% of the Moon is Illuminated
Today
Waxing Crescent
Oct 1
First Quarter
Oct 8
Full
Oct 15
Last Quarter
Oct 23
New

Today's Extremes

State Highs State Lows

Community

WunderPhotos

Upload Photos

1,757,710 photos uploaded!

Nearby

Snow Depth

Station Depth Elevation
Summit Meadow 1 in 9122 ft
Horse Meadow 0 in 8631 ft
Forestdale Creek 0 in 8029 ft
Rubicon #2 0 in 7500 ft
Truckee #2 0 in 6400 ft

Earthquake Activity

City Distance Mag. Time & Date
No recent earthquake activity has been reported nearby.
Minimum magnitude displayed is 2.5.

Coastal Water Temperatures

Place Temperature
No Stations Reporting

Nearby Weather Stations